Time;durP1;ratioP1;P1;durP2;ratioP2;P2;SDS_P1;SDS_P2;PMS_P1;PMS_P2;Temp;Humidity;BMP_temperature;BMP_pressure;BME280_temperature;BME280_humidity;BME280_pressure;Samples;Min_cycle;Max_cycle;Signal;HPM_P1;HPM_P2
2023/06/13 00:01:05;;;;;;;5.95;4.28;;;17.60;80.80;;;-144.05;40.69;56778.75;5053880;28;20033;-79
2023/06/13 00:03:33;;;;;;;6.60;4.10;;;17.50;81.30;;;-144.05;41.07;56787.25;5072660;28;20402;-79
2023/06/13 00:06:01;;;;;;;6.07;4.03;;;17.40;82.10;;;-144.05;41.24;56759.63;5053407;28;20075;-78
2023/06/13 00:08:31;;;;;;;6.32;3.70;;;17.40;82.20;;;-144.05;41.34;56802.09;5054285;28;20078;-79
2023/06/13 00:11:01;;;;;;;6.55;4.03;;;17.40;82.80;;;-144.05;41.82;56774.50;5071267;28;20082;-78
2023/06/13 00:13:26;;;;;;;8.05;5.07;;;17.20;83.80;;;-144.05;41.98;56797.88;5054211;28;20032;-78
2023/06/13 00:15:58;;;;;;;6.82;4.13;;;17.10;84.40;;;-144.05;42.22;56787.25;5053380;28;20048;-78
2023/06/13 00:18:30;;;;;;;7.53;4.18;;;17.10;85.30;;;-144.05;42.55;56783.00;5072552;28;20029;-80
2023/06/13 00:20:58;;;;;;;9.55;4.40;;;17.00;86.30;;;-144.05;42.56;56763.88;5070684;28;20037;-78
2023/06/13 00:23:26;;;;;;;8.48;3.58;;;17.00;86.70;;;-144.05;42.78;56776.63;5054441;28;20113;-78
2023/06/13 00:25:53;;;;;;;7.97;4.30;;;17.00;88.00;;;-144.05;43.08;56774.50;5071723;28;20021;-80
2023/06/13 00:28:20;;;;;;;7.35;4.22;;;16.90;89.00;;;-144.05;43.07;56774.50;5054489;28;20067;-80
2023/06/13 00:30:45;;;;;;;5.53;3.78;;;16.90;90.00;;;-144.05;43.25;56787.25;5071848;28;20041;-80
2023/06/13 00:33:18;;;;;;;8.32;4.35;;;16.80;90.90;;;-144.05;43.82;56785.13;5069675;28;20037;-79
2023/06/13 00:35:44;;;;;;;6.90;4.20;;;16.70;92.00;;;-144.05;44.07;56751.13;5050762;28;20040;-79
2023/06/13 00:38:12;;;;;;;7.43;4.40;;;16.70;93.40;;;-144.05;44.22;56791.50;5050860;28;20021;-78
2023/06/13 00:40:40;;;;;;;9.88;4.70;;;16.60;94.80;;;-144.05;44.55;56795.75;5069890;28;20482;-79
2023/06/13 00:43:06;;;;;;;7.00;4.47;;;16.60;96.30;;;-144.05;44.75;56768.13;5049908;28;20074;-79
2023/06/13 00:45:33;;;;;;;5.57;4.45;;;16.60;97.60;;;-144.05;44.59;56768.13;5050080;28;20070;-80
2023/06/13 00:48:06;;;;;;;7.82;4.88;;;16.50;98.80;;;-144.05;44.80;56753.25;5066521;28;20075;-78
2023/06/13 00:50:40;;;;;;;11.20;4.57;;;16.50;99.90;;;-144.05;45.20;56768.13;5068072;28;20029;-78
2023/06/13 00:53:16;;;;;;;6.93;4.40;;;16.50;99.90;;;-144.05;44.92;56791.50;5066073;28;20075;-78
2023/06/13 00:55:44;;;;;;;8.48;4.25;;;16.50;99.90;;;-144.05;45.14;56770.25;5049505;28;20025;-80
2023/06/13 00:58:13;;;;;;;11.10;4.90;;;16.40;99.90;;;-144.05;45.55;56785.13;5067520;28;20410;-78
2023/06/13 01:00:43;;;;;;;9.82;4.60;;;16.40;99.90;;;-144.05;45.58;56785.13;5067854;28;20021;-78
2023/06/13 01:03:15;;;;;;;6.63;4.53;;;16.30;99.90;;;-144.05;45.59;56759.63;5049044;28;20036;-77
2023/06/13 01:05:47;;;;;;;8.13;4.43;;;16.20;99.90;;;-144.05;46.03;56755.38;5049567;28;20029;-78
2023/06/13 01:08:23;;;;;;;5.68;4.20;;;16.10;99.90;;;-144.05;46.46;56795.75;5067968;28;20490;-80
2023/06/13 01:11:45;;;;;;;9.88;4.50;;;16.00;99.90;;;-144.05;46.67;56759.63;5067057;28;20036;-78
2023/06/13 01:14:24;;;;;;;5.50;4.35;;;15.90;99.90;;;-144.05;46.69;56776.63;5065073;28;20119;-78
2023/06/13 01:17:08;;;;;;;7.18;4.53;;;15.90;99.90;;;-144.05;46.88;56795.75;5048613;28;20063;-78
2023/06/13 01:19:57;;;;;;;7.10;4.35;;;15.90;99.90;;;-144.05;46.97;56778.75;5067284;28;20032;-79
2023/06/13 01:22:42;;;;;;;6.47;4.57;;;15.90;99.90;;;-144.05;46.64;56763.88;5067600;28;20025;-78
2023/06/13 01:25:57;;;;;;;7.63;4.20;;;16.00;99.90;;;-144.05;47.00;56776.63;5048701;28;20025;-79
2023/06/13 01:28:25;;;;;;;6.70;4.88;;;16.00;99.90;;;-144.05;46.74;56757.50;5048466;28;20033;-79
2023/06/13 01:30:55;;;;;;;6.30;4.78;;;16.00;99.90;;;-144.05;46.46;56742.63;5066563;28;20044;-79
2023/06/13 01:33:23;;;;;;;9.15;4.85;;;16.10;99.90;;;-144.05;46.14;56778.75;5048848;28;20033;-77
2023/06/13 01:35:50;;;;;;;5.75;4.07;;;16.20;99.90;;;-144.05;46.21;56787.25;5045948;28;20057;-78
2023/06/13 01:38:16;;;;;;;8.55;4.82;;;16.20;99.90;;;-144.05;45.97;56787.25;5046134;28;20028;-79
2023/06/13 01:40:42;;;;;;;8.50;4.40;;;16.30;99.90;;;-144.05;45.78;56763.88;5045902;28;20035;-78
2023/06/13 01:43:08;;;;;;;10.27;5.00;;;16.30;99.90;;;-144.05;45.88;56763.88;5064147;28;20071;-78
2023/06/13 01:45:35;;;;;;;8.45;4.75;;;16.30;99.90;;;-144.05;46.14;56768.13;5063894;28;20292;-78
2023/06/13 01:48:13;;;;;;;8.07;4.95;;;16.30;99.90;;;-144.05;46.07;56785.13;5045303;28;20029;-77
2023/06/13 01:50:54;;;;;;;9.02;5.05;;;16.30;99.90;;;-144.05;45.98;56789.38;5046292;28;20044;-79
2023/06/13 01:53:39;;;;;;;7.00;5.00;;;16.30;99.90;;;-144.05;46.00;56778.75;5063819;28;20041;-78
2023/06/13 01:56:13;;;;;;;5.88;4.10;;;16.20;99.90;;;-144.05;46.21;56785.13;5048300;28;20029;-77
2023/06/13 01:59:00;;;;;;;9.07;5.22;;;16.10;99.90;;;-144.05;46.16;56780.88;5051712;28;20071;-77
2023/06/13 02:01:34;;;;;;;10.32;4.95;;;16.10;99.90;;;-144.05;46.19;56768.13;5069427;28;20025;-78
2023/06/13 02:04:02;;;;;;;9.27;5.43;;;16.10;99.90;;;-144.05;46.40;56783.00;5068536;28;20029;-78
2023/06/13 02:06:29;;;;;;;11.05;4.82;;;16.10;99.90;;;-144.05;46.49;56780.88;5067201;28;20088;-80
2023/06/13 02:08:57;;;;;;;8.32;5.13;;;16.10;99.90;;;-144.05;46.29;56774.50;5047475;28;20104;-77
2023/06/13 02:11:23;;;;;;;7.82;5.22;;;16.00;99.90;;;-144.05;46.55;56783.00;5043802;28;20025;-79
2023/06/13 02:13:49;;;;;;;7.85;5.25;;;16.00;99.90;;;-144.05;46.55;56797.88;5062396;28;20035;-78
2023/06/13 02:16:18;;;;;;;7.82;5.00;;;16.00;99.90;;;-144.05;46.59;56761.75;5062799;28;20033;-79
2023/06/13 02:18:47;;;;;;;8.45;4.82;;;15.90;99.90;;;-144.05;46.78;56768.13;5045524;28;20025;-79
2023/06/13 02:21:13;;;;;;;8.45;5.38;;;15.90;99.90;;;-144.05;46.95;56774.50;5062991;28;20025;-78
2023/06/13 02:23:39;;;;;;;8.75;5.13;;;15.90;99.90;;;-144.05;46.79;56768.13;5063163;28;20052;-77
2023/06/13 02:26:09;;;;;;;7.47;5.40;;;15.80;99.90;;;-144.05;47.22;56774.50;5059894;28;20505;-79
2023/06/13 02:28:35;;;;;;;6.93;4.80;;;15.80;99.90;;;-144.05;47.45;56774.50;5044311;28;20025;-76
2023/06/13 02:31:01;;;;;;;10.02;5.25;;;15.70;99.90;;;-144.05;47.69;56783.00;5066265;28;20422;-80
2023/06/13 02:33:30;;;;;;;6.55;5.15;;;15.70;99.90;;;-144.05;47.72;56774.50;5069905;28;20020;-78
2023/06/13 02:35:56;;;;;;;8.40;5.63;;;15.70;99.90;;;-144.05;47.75;56757.50;5068417;28;20037;-78
2023/06/13 02:38:22;;;;;;;10.95;5.63;;;15.60;99.90;;;-144.05;48.08;56759.63;5069931;28;20036;-79
2023/06/13 02:40:48;;;;;;;9.60;5.85;;;15.50;99.90;;;-144.05;47.92;56738.41;5064667;28;20025;-80
2023/06/13 02:43:14;;;;;;;9.05;5.35;;;15.60;99.90;;;-144.05;47.74;56776.63;5050028;28;20095;-79
2023/06/13 02:45:40;;;;;;;7.97;5.20;;;15.60;99.90;;;-144.05;48.08;56770.25;5069884;28;20029;-80
2023/06/13 02:48:06;;;;;;;7.65;4.82;;;15.50;99.90;;;-144.05;48.16;56772.38;5071781;28;20101;-79
2023/06/13 02:50:32;;;;;;;11.88;6.10;;;15.50;99.90;;;-144.05;48.63;56736.28;5062263;28;20146;-79
2023/06/13 02:52:58;;;;;;;6.90;5.32;;;15.50;99.90;;;-144.05;48.51;56768.13;5058359;28;20029;-78
2023/06/13 02:55:24;;;;;;;8.45;5.22;;;15.40;99.90;;;-144.05;48.56;56759.63;5061954;28;20037;-80
2023/06/13 02:57:50;;;;;;;8.00;5.00;;;15.40;99.90;;;-144.05;48.90;56778.75;5062077;28;20028;-79
2023/06/13 03:00:16;;;;;;;11.73;5.40;;;15.30;99.90;;;-144.05;49.07;56774.50;5064137;28;20029;-78
2023/06/13 03:02:46;;;;;;;9.02;5.65;;;15.30;99.90;;;-144.05;48.99;56778.75;5067488;28;20029;-81
2023/06/13 03:05:16;;;;;;;7.30;4.90;;;15.30;99.90;;;-144.05;49.07;56768.13;5050697;28;20108;-77
2023/06/13 03:07:46;;;;;;;7.13;5.22;;;15.20;99.90;;;-144.05;49.47;56759.63;5068999;28;20029;-78
2023/06/13 03:10:15;;;;;;;8.82;5.40;;;15.20;99.90;;;-144.05;49.47;56740.50;5067815;28;20025;-80
2023/06/13 03:12:41;;;;;;;8.32;5.50;;;15.10;99.90;;;-144.05;49.85;56772.38;5051747;28;20029;-80
2023/06/13 03:15:08;;;;;;;7.45;5.28;;;15.10;99.90;;;-144.05;49.84;56774.50;5052752;28;20159;-83
2023/06/13 03:17:35;;;;;;;8.68;5.18;;;15.10;99.90;;;-144.05;49.52;56755.38;5051541;28;20025;-78
2023/06/13 03:20:05;;;;;;;7.40;5.25;;;15.10;99.90;;;-144.05;49.55;56772.38;5069118;28;20054;-80
2023/06/13 03:22:31;;;;;;;9.88;5.40;;;15.10;99.90;;;-144.05;49.57;56761.75;5069197;28;20118;-79
2023/06/13 03:25:04;;;;;;;10.50;6.43;;;15.10;99.90;;;-144.05;49.98;56749.00;5051308;28;20061;-78
2023/06/13 03:27:33;;;;;;;13.20;6.22;;;15.00;99.90;;;-144.05;50.30;56753.25;5052654;28;20067;-77
2023/06/13 03:30:00;;;;;;;9.85;5.88;;;15.00;99.90;;;-144.05;50.14;56770.25;5073574;28;20045;-79
2023/06/13 03:32:26;;;;;;;8.60;5.70;;;15.00;99.90;;;-144.05;50.10;56772.38;5073351;28;20029;-79
2023/06/13 03:34:52;;;;;;;10.23;5.93;;;15.00;99.90;;;-144.05;50.04;56776.63;5073856;28;20108;-78
2023/06/13 03:37:19;;;;;;;8.85;6.18;;;15.10;99.90;;;-144.05;50.20;56768.13;5055710;28;20077;-78
2023/06/13 03:39:45;;;;;;;9.68;5.70;;;15.10;99.90;;;-144.05;50.09;56774.50;5072440;28;20101;-80
2023/06/13 03:42:11;;;;;;;8.43;4.93;;;15.00;99.90;;;-144.05;49.96;56746.88;5072215;28;20025;-78
2023/06/13 03:44:37;;;;;;;10.35;5.93;;;15.10;99.90;;;-144.05;49.96;56759.63;5071297;28;20029;-79
2023/06/13 03:47:03;;;;;;;9.13;5.72;;;15.10;99.90;;;-144.05;50.23;56755.38;5070649;28;20051;-79
2023/06/13 03:49:29;;;;;;;7.20;5.53;;;15.00;99.90;;;-144.05;50.07;56761.75;5070472;28;20103;-79
2023/06/13 03:51:55;;;;;;;11.27;5.63;;;15.00;99.90;;;-144.05;50.33;56774.50;5052372;28;20139;-78
2023/06/13 03:54:21;;;;;;;7.40;5.53;;;15.00;99.90;;;-144.05;50.14;56778.75;5051690;28;20116;-77
2023/06/13 03:56:48;;;;;;;9.60;5.88;;;15.00;99.90;;;-144.05;50.57;56772.38;5068648;28;20048;-78
2023/06/13 03:59:15;;;;;;;8.30;5.45;;;15.00;99.90;;;-144.05;50.41;56768.13;5067876;28;20040;-78
2023/06/13 04:01:41;;;;;;;8.43;5.55;;;15.00;99.90;;;-144.05;50.27;56774.50;5050568;28;20032;-80
2023/06/13 04:04:08;;;;;;;7.93;5.88;;;15.00;99.90;;;-144.05;50.47;56770.25;5066524;28;20490;-79
2023/06/13 04:06:37;;;;;;;10.60;5.75;;;15.00;99.90;;;-144.05;50.36;56759.63;5050556;28;20275;-78
2023/06/13 04:09:05;;;;;;;8.70;5.65;;;15.00;99.90;;;-144.05;50.33;56778.75;5050565;28;20082;-82
2023/06/13 04:11:34;;;;;;;9.95;6.07;;;15.00;99.90;;;-144.05;50.61;56785.13;5050758;28;20033;-76
2023/06/13 04:14:01;;;;;;;6.97;5.38;;;15.00;99.90;;;-144.05;50.73;56776.63;5067836;28;20040;-80
2023/06/13 04:16:28;;;;;;;9.20;5.72;;;15.00;99.90;;;-144.05;50.39;56799.97;5050597;28;20021;-78
2023/06/13 04:18:57;;;;;;;6.47;5.15;;;15.10;99.90;;;-144.05;50.14;56768.13;5068424;28;20021;-76
2023/06/13 04:21:25;;;;;;;9.13;5.95;;;15.10;99.90;;;-144.05;50.51;56768.13;5064693;28;20104;-80
2023/06/13 04:23:55;;;;;;;8.85;6.05;;;15.10;99.90;;;-144.05;50.02;56768.13;5049364;28;20036;-80
2023/06/13 04:26:23;;;;;;;8.18;5.45;;;15.20;99.90;;;-144.05;49.92;56776.63;5067982;28;20039;-78
2023/06/13 04:28:50;;;;;;;9.13;6.50;;;15.30;99.90;;;-144.05;49.79;56780.88;5050163;28;20040;-78
2023/06/13 04:31:17;;;;;;;10.07;6.57;;;15.40;99.90;;;-144.05;49.04;56783.00;5067325;28;20048;-79
2023/06/13 04:33:44;;;;;;;7.57;5.75;;;15.50;99.90;;;-144.05;49.01;56761.75;5049704;28;20032;-78
2023/06/13 04:36:12;;;;;;;8.60;5.57;;;15.60;99.90;;;-144.05;48.63;56776.63;5049063;28;20025;-80
2023/06/13 04:38:39;;;;;;;10.55;5.90;;;15.70;99.90;;;-144.05;48.21;56791.50;5067831;28;20021;-80
2023/06/13 04:41:10;;;;;;;7.68;4.78;;;15.80;99.90;;;-144.05;48.03;56783.00;5049798;28;20040;-79
2023/06/13 04:43:41;;;;;;;10.68;5.88;;;15.90;99.90;;;-144.05;47.84;56770.25;5068700;28;20044;-79
2023/06/13 04:46:10;;;;;;;8.88;6.10;;;16.10;99.90;;;-144.05;47.56;56772.38;5050857;28;20039;-80
2023/06/13 04:48:37;;;;;;;7.78;5.55;;;16.20;99.90;;;-144.05;46.94;56751.13;5048783;28;20029;-78
2023/06/13 04:51:04;;;;;;;8.02;5.05;;;16.30;99.90;;;-144.05;46.64;56768.13;5048137;28;20032;-79
2023/06/13 04:53:30;;;;;;;9.35;5.75;;;16.50;99.90;;;-144.05;46.26;56772.38;5048117;28;20033;-79
2023/06/13 04:55:58;;;;;;;14.65;6.32;;;16.60;99.90;;;-144.05;46.11;56778.75;5067922;28;20021;-78
2023/06/13 04:58:24;;;;;;;9.07;5.50;;;16.70;99.90;;;-144.05;45.80;56778.75;5066849;28;20021;-79
2023/06/13 05:00:51;;;;;;;8.73;5.95;;;16.90;99.90;;;-144.05;45.46;56763.88;5065221;28;20037;-78
2023/06/13 05:03:20;;;;;;;7.25;5.53;;;16.90;99.90;;;-144.05;45.19;56778.75;5066184;28;20075;-82
2023/06/13 05:05:48;;;;;;;8.52;5.28;;;17.00;99.90;;;-144.05;44.77;56772.38;5049862;28;20043;-78
2023/06/13 05:08:19;;;;;;;8.20;5.40;;;17.10;99.90;;;-144.05;44.49;56780.88;5065506;28;20044;-82
2023/06/13 05:10:46;;;;;;;8.65;5.32;;;17.30;99.90;;;-144.05;44.22;56787.25;5063739;28;20033;-78
2023/06/13 05:13:12;;;;;;;9.65;5.70;;;17.50;99.90;;;-144.05;43.85;56778.75;5046318;28;20136;-79
2023/06/13 05:15:42;;;;;;;8.85;5.57;;;17.60;99.90;;;-144.05;43.71;56763.88;5045195;28;20033;-79
2023/06/13 05:18:12;;;;;;;12.20;6.13;;;17.80;99.90;;;-144.05;43.32;56799.97;5046181;28;20135;-78
2023/06/13 05:20:41;;;;;;;10.80;6.13;;;17.90;99.90;;;-144.05;42.64;56778.75;5063552;28;20035;-81
2023/06/13 05:23:08;;;;;;;8.75;5.57;;;18.10;99.90;;;-144.05;42.46;56780.88;5046231;28;20566;-80
2023/06/13 05:25:35;;;;;;;8.73;5.78;;;18.20;99.90;;;-144.05;42.34;56789.38;5064339;28;20032;-80
2023/06/13 05:28:02;;;;;;;7.50;5.50;;;18.30;99.90;;;-144.05;41.93;56795.75;5064947;28;20059;-80
2023/06/13 05:30:28;;;;;;;9.45;5.68;;;18.50;99.90;;;-144.05;41.68;56797.88;5045618;28;20087;-80
2023/06/13 05:32:54;;;;;;;13.45;6.15;;;18.70;99.90;;;-144.05;41.27;56787.25;5064899;28;20029;-80
2023/06/13 05:35:20;;;;;;;7.47;5.53;;;18.70;99.90;;;-144.05;41.19;56819.09;5064972;28;20025;-81
2023/06/13 05:37:48;;;;;;;8.77;5.30;;;19.00;99.90;;;-144.05;41.36;56806.34;5064246;28;20032;-81
2023/06/13 05:40:14;;;;;;;9.88;5.53;;;19.10;99.90;;;-144.05;40.75;56797.88;5065105;28;20025;-79
2023/06/13 05:42:39;;;;;;;10.43;5.38;;;19.40;99.90;;;-144.05;39.69;56810.59;5064627;28;20478;-78
2023/06/13 05:45:08;;;;;;;6.05;4.18;;;19.60;99.90;;;-144.05;39.89;56802.09;5065086;28;20032;-78
2023/06/13 05:47:35;;;;;;;9.82;5.32;;;20.00;99.90;;;-144.05;39.81;56821.22;5062555;28;20486;-83
2023/06/13 05:50:01;;;;;;;10.18;4.93;;;20.30;99.90;;;-144.05;38.44;56829.72;5045749;28;20171;-80
2023/06/13 05:52:27;;;;;;;8.43;5.32;;;20.60;99.90;;;-144.05;38.40;56823.34;5064777;28;20035;-82
2023/06/13 05:54:53;;;;;;;7.80;4.65;;;20.70;99.90;;;-144.05;37.80;56802.09;5064698;28;20025;-84
2023/06/13 05:57:19;;;;;;;8.45;4.97;;;20.80;99.90;;;-144.05;37.27;56819.09;5065224;28;20051;-81
2023/06/13 05:59:45;;;;;;;11.50;5.38;;;21.00;99.40;;;-144.05;37.62;56804.22;5065135;28;20498;-82
2023/06/13 06:02:13;;;;;;;8.88;4.88;;;21.10;98.80;;;-144.05;37.82;56829.72;5064993;28;20021;-80
2023/06/13 06:04:39;;;;;;;8.57;5.07;;;21.20;99.50;;;-144.05;36.70;56831.84;5064891;28;20143;-79
2023/06/13 06:07:05;;;;;;;8.63;5.07;;;21.40;97.30;;;-144.05;36.74;56808.47;5070865;28;20589;-78
2023/06/13 06:09:31;;;;;;;9.13;5.07;;;21.50;97.60;;;-144.05;36.46;56833.97;5054725;28;20101;-79
2023/06/13 06:11:58;;;;;;;9.32;4.88;;;21.60;96.10;;;-144.05;36.67;56829.72;5071928;28;20040;-78
2023/06/13 06:14:24;;;;;;;10.70;4.78;;;21.80;96.70;;;-144.05;36.16;56844.59;5054273;28;20035;-79
2023/06/13 06:16:50;;;;;;;8.73;4.60;;;21.90;96.00;;;-144.05;35.38;56857.34;5071772;28;20033;-79
2023/06/13 06:19:17;;;;;;;8.98;4.50;;;22.20;94.60;;;-144.05;35.11;56831.84;5048773;28;20573;-80
2023/06/13 06:21:42;;;;;;;11.07;5.00;;;22.40;93.70;;;-144.05;34.72;56853.09;5045557;28;20501;-79
2023/06/13 06:24:08;;;;;;;7.25;4.22;;;22.50;92.80;;;-144.05;34.86;56846.72;5044389;28;20037;-80
2023/06/13 06:26:34;;;;;;;5.43;4.35;;;22.60;93.10;;;-144.05;34.31;56876.44;5062312;28;20084;-80
2023/06/13 06:29:00;;;;;;;8.30;5.10;;;22.90;92.10;;;-144.05;34.25;56853.09;5062690;28;20029;-80
2023/06/13 06:31:27;;;;;;;6.53;3.97;;;23.00;91.70;;;-144.05;34.19;56842.47;5063296;28;20043;-80
2023/06/13 06:33:53;;;;;;;9.23;4.53;;;23.20;91.70;;;-144.05;33.54;56863.69;5045420;28;20082;-79
2023/06/13 06:36:24;;;;;;;6.88;4.32;;;23.40;90.20;;;-144.05;32.96;56874.31;5063258;28;20021;-78
2023/06/13 06:38:51;;;;;;;6.82;4.18;;;23.50;88.60;;;-144.05;32.62;56867.94;5062654;28;20029;-82
2023/06/13 06:41:17;;;;;;;6.13;4.00;;;23.50;85.80;;;-144.05;32.96;56861.56;5063583;28;20080;-80
2023/06/13 06:43:43;;;;;;;8.05;4.30;;;23.60;87.40;;;-144.05;33.21;56870.06;5044234;28;20462;-78
2023/06/13 06:46:09;;;;;;;7.72;4.78;;;23.70;86.80;;;-144.05;32.70;56853.09;5062214;28;20029;-80
2023/06/13 06:48:35;;;;;;;8.27;4.07;;;23.70;85.30;;;-144.05;32.60;56855.22;5044585;28;20055;-80
2023/06/13 06:51:01;;;;;;;6.75;4.00;;;23.80;85.00;;;-144.05;32.54;56857.34;5044704;28;20029;-79
2023/06/13 06:53:28;;;;;;;6.97;4.30;;;23.70;84.00;;;-144.05;32.55;56867.94;5044179;28;20029;-80
2023/06/13 06:55:54;;;;;;;6.13;4.05;;;23.90;83.60;;;-144.05;31.98;56870.06;5062799;28;20056;-79
2023/06/13 06:58:20;;;;;;;7.53;5.18;;;24.10;82.10;;;-144.05;32.39;56887.06;5064506;28;20021;-80
2023/06/13 07:00:46;;;;;;;5.35;4.28;;;24.30;82.70;;;-144.05;32.29;56904.06;5045792;28;20051;-80
2023/06/13 07:03:12;;;;;;;7.07;4.65;;;24.60;82.80;;;-144.05;31.86;56893.44;5062787;28;20036;-78
2023/06/13 07:05:39;;;;;;;6.55;4.32;;;24.60;82.10;;;-144.05;31.55;56908.31;5063073;28;20033;-78
2023/06/13 07:08:06;;;;;;;7.35;4.57;;;24.70;80.50;;;-144.05;31.34;56910.44;5043980;28;20048;-81
2023/06/13 07:10:32;;;;;;;9.18;4.38;;;25.00;79.00;;;-144.05;30.12;56914.69;5043963;28;20033;-79
2023/06/13 07:12:57;;;;;;;12.13;4.15;;;25.10;75.50;;;-144.05;30.31;56897.69;5044263;28;20056;-80
2023/06/13 07:15:23;;;;;;;11.25;4.60;;;25.30;75.60;;;-144.05;30.53;56923.19;5062796;28;20033;-81
2023/06/13 07:17:50;;;;;;;10.02;4.40;;;25.10;75.20;;;-144.05;30.31;56901.94;5063690;28;20052;-85
2023/06/13 07:20:17;;;;;;;7.63;4.40;;;25.30;74.90;;;-144.05;30.10;56929.53;5063121;28;20025;-81
2023/06/13 07:22:43;;;;;;;10.98;4.30;;;25.40;74.50;;;-144.05;30.01;56929.53;5063050;28;20494;-78
2023/06/13 07:25:09;;;;;;;8.38;4.53;;;25.70;73.60;;;-144.05;29.97;56948.66;5062402;28;20039;-82
2023/06/13 07:27:36;;;;;;;6.05;3.88;;;25.80;72.50;;;-144.05;28.94;56946.53;5057519;28;20506;-82
2023/06/13 07:30:02;;;;;;;6.18;4.93;;;25.90;69.70;;;-144.05;29.25;56925.28;5061931;28;20512;-80
2023/06/13 07:32:28;;;;;;;4.65;3.97;;;26.10;71.20;;;-144.05;29.06;56942.28;5060496;28;20040;-79
2023/06/13 07:34:54;;;;;;;7.75;3.97;;;25.70;69.10;;;-144.05;29.84;56904.06;5060273;28;20037;-78
2023/06/13 07:37:19;;;;;;;6.07;4.00;;;25.60;70.40;;;-144.05;30.40;56944.41;5040712;28;20025;-80
2023/06/13 07:39:45;;;;;;;6.82;4.05;;;26.00;73.70;;;-144.05;29.24;56959.28;5059829;28;20513;-81
2023/06/13 07:42:11;;;;;;;8.43;4.45;;;26.10;69.00;;;-144.05;28.62;56955.03;5059394;28;20052;-82
2023/06/13 07:44:37;;;;;;;5.45;3.70;;;26.50;68.30;;;-144.05;28.30;56980.53;5039210;28;20021;-79
2023/06/13 07:47:03;;;;;;;8.00;3.95;;;26.80;67.00;;;-144.05;28.69;57006.00;5056520;28;20449;-78
2023/06/13 07:49:30;;;;;;;5.70;3.75;;;27.10;69.60;;;-144.05;28.29;57020.88;5039057;28;20025;-80
2023/06/13 07:51:56;;;;;;;5.68;3.92;;;27.30;67.50;;;-144.05;28.19;57046.38;5038751;28;20025;-79
2023/06/13 07:54:22;;;;;;;5.57;4.07;;;27.60;66.30;;;-144.05;27.45;57006.00;5057194;28;20037;-78
2023/06/13 07:56:49;;;;;;;3.92;3.45;;;27.50;63.80;;;-144.05;27.74;56995.38;5058994;28;20025;-81
2023/06/13 07:59:15;;;;;;;5.97;3.58;;;27.40;64.90;;;-144.05;27.56;57010.25;5042241;28;20040;-78
2023/06/13 08:01:41;;;;;;;5.95;3.78;;;27.10;62.70;;;-144.05;27.83;56993.25;5066054;28;20021;-79
2023/06/13 08:04:07;;;;;;;8.55;4.10;;;27.10;64.20;;;-144.05;28.23;57010.25;5063363;28;20033;-80
2023/06/13 08:06:33;;;;;;;4.93;3.55;;;27.30;63.80;;;-144.05;28.19;57012.38;5044358;28;20098;-80
2023/06/13 08:08:59;;;;;;;10.00;3.80;;;27.50;64.80;;;-144.05;27.17;57001.75;5064552;28;20025;-79
2023/06/13 08:11:25;;;;;;;7.65;4.22;;;27.50;61.80;;;-144.05;27.79;57010.25;5064121;28;20037;-79
2023/06/13 08:13:51;;;;;;;6.65;3.90;;;27.60;63.60;;;-144.05;27.63;57029.38;5062853;28;20029;-81
2023/06/13 08:16:17;;;;;;;4.93;3.47;;;27.90;62.60;;;-144.05;27.16;57025.13;5063260;28;20029;-81
2023/06/13 08:18:43;;;;;;;4.65;3.92;;;28.20;62.40;;;-144.05;27.07;57040.00;5064504;28;20029;-81
2023/06/13 08:21:09;;;;;;;8.85;3.90;;;28.00;60.90;;;-144.05;27.41;57027.25;5065953;28;20033;-80
2023/06/13 08:23:35;;;;;;;4.72;3.53;;;27.70;61.10;;;-144.05;26.89;57042.13;5046828;28;20032;-81
2023/06/13 08:26:02;;;;;;;4.47;3.60;;;28.00;60.70;;;-144.05;27.21;57027.25;5064866;28;20037;-79
2023/06/13 08:28:29;;;;;;;7.65;3.65;;;27.80;61.00;;;-144.05;27.53;57016.63;5063362;28;20082;-80
2023/06/13 08:30:55;;;;;;;5.00;3.92;;;27.90;61.30;;;-144.05;26.58;57031.50;5044263;28;20502;-81
2023/06/13 08:33:21;;;;;;;5.45;3.67;;;28.20;59.70;;;-144.05;27.08;57073.97;5064087;28;20060;-80
2023/06/13 08:35:46;;;;;;;7.53;4.28;;;28.70;61.50;;;-144.05;26.63;57018.75;5043387;28;20032;-81
2023/06/13 08:38:12;;;;;;;5.45;3.70;;;28.40;58.30;;;-144.05;26.63;57046.38;5065188;28;20067;-80
2023/06/13 08:40:39;;;;;;;4.85;3.35;;;28.30;58.70;;;-144.05;26.11;57020.88;5049269;28;20029;-81
2023/06/13 08:43:05;;;;;;;11.65;3.90;;;28.30;57.60;;;-144.05;26.30;57025.13;5066827;28;20441;-81
2023/06/13 08:45:31;;;;;;;5.80;3.70;;;27.90;57.50;;;-144.05;26.46;57018.75;5067496;28;20037;-81
2023/06/13 08:47:59;;;;;;;8.05;4.28;;;28.00;58.80;;;-144.05;27.00;57061.22;5067005;28;20029;-79
2023/06/13 08:50:26;;;;;;;6.07;3.67;;;28.30;60.20;;;-144.05;26.01;57059.09;5067353;28;20363;-83
2023/06/13 08:52:56;;;;;;;5.35;3.30;;;28.50;58.00;;;-144.05;26.80;57040.00;5066176;28;20461;-82
2023/06/13 08:55:25;;;;;;;7.47;3.85;;;28.10;59.00;;;-144.05;26.15;57031.50;5065893;28;20036;-81
2023/06/13 08:57:54;;;;;;;5.32;3.78;;;28.20;57.60;;;-144.05;25.91;57076.09;5047666;28;20032;-81
2023/06/13 09:00:24;;;;;;;6.90;3.25;;;28.40;57.90;;;-144.05;25.84;57080.34;5048089;28;20508;-81
2023/06/13 09:02:52;;;;;;;6.40;3.90;;;29.00;57.60;;;-144.05;26.10;57095.22;5047969;28;20029;-78
2023/06/13 09:05:19;;;;;;;5.28;3.53;;;28.90;58.30;;;-144.05;25.52;57069.72;5048292;28;20024;-81
2023/06/13 09:07:50;;;;;;;6.30;3.45;;;28.70;56.10;;;-144.05;25.52;57046.38;5046963;28;20064;-81
2023/06/13 09:10:17;;;;;;;7.30;3.85;;;28.40;55.50;;;-144.05;26.12;57054.88;5065894;28;20037;-79
2023/06/13 09:12:49;;;;;;;6.28;4.30;;;28.20;56.60;;;-144.05;26.02;57059.09;5046856;28;20386;-83
2023/06/13 09:15:15;;;;;;;5.65;3.35;;;28.40;56.90;;;-144.05;25.85;57044.25;5062310;28;20032;-83
2023/06/13 09:17:42;;;;;;;8.93;4.10;;;28.70;56.40;;;-144.05;25.74;57099.47;5062730;28;20029;-79
2023/06/13 09:20:08;;;;;;;4.45;3.63;;;28.90;56.70;;;-144.05;25.50;57107.97;5062271;28;20375;-80
2023/06/13 09:22:36;;;;;;;10.18;4.10;;;29.10;56.00;;;-144.05;25.73;57110.09;5063843;28;20029;-81
2023/06/13 09:25:04;;;;;;;6.30;3.33;;;29.00;56.00;;;-144.05;25.88;57071.84;5045159;28;20029;-80
2023/06/13 09:27:31;;;;;;;6.55;3.90;;;28.70;56.60;;;-144.05;26.19;57054.88;5046065;28;20024;-81
2023/06/13 09:30:01;;;;;;;6.80;3.92;;;28.60;56.40;;;-144.05;25.31;57059.09;5064563;28;20390;-81
2023/06/13 09:32:27;;;;;;;8.68;4.00;;;28.60;55.00;;;-144.05;25.69;57082.47;5045455;28;20112;-81
2023/06/13 09:34:53;;;;;;;5.78;3.78;;;28.80;55.80;;;-144.05;25.85;57069.72;5046153;28;20025;-82
2023/06/13 09:37:20;;;;;;;6.30;3.65;;;28.60;56.50;;;-144.05;26.05;57071.84;5063807;28;20021;-82
2023/06/13 09:39:51;;;;;;;4.28;3.20;;;28.40;56.50;;;-144.05;25.47;57054.88;5063576;28;20029;-81
2023/06/13 09:42:24;;;;;;;6.25;3.35;;;28.40;54.90;;;-144.05;25.59;57031.50;5045746;28;20025;-80
2023/06/13 09:44:52;;;;;;;4.55;3.50;;;28.30;54.70;;;-144.05;25.33;57065.47;5044735;28;20297;-82
2023/06/13 09:47:24;;;;;;;3.58;3.13;;;28.60;54.10;;;-144.05;24.69;57063.34;5063282;28;20505;-82
2023/06/13 09:49:57;;;;;;;5.55;4.10;;;28.80;53.50;;;-144.05;25.84;57095.22;5063903;28;20029;-81
2023/06/13 09:52:32;;;;;;;7.00;3.60;;;29.00;56.10;;;-144.05;25.07;57124.97;5045342;28;20029;-81
2023/06/13 09:54:58;;;;;;;4.50;3.50;;;29.30;54.50;;;-144.05;25.12;57086.72;5063234;28;20057;-80
2023/06/13 09:57:24;;;;;;;5.45;3.75;;;29.20;54.80;;;-144.05;24.91;57088.84;5045802;28;20021;-80
2023/06/13 09:59:51;;;;;;;6.70;3.60;;;29.30;54.00;;;-144.05;24.39;57141.94;5063322;28;20096;-80
2023/06/13 10:02:20;;;;;;;5.43;3.80;;;29.40;52.60;;;-144.05;24.08;57107.97;5063080;28;20052;-79
2023/06/13 10:04:52;;;;;;;3.97;3.30;;;29.10;50.60;;;-144.05;24.63;57097.34;5046043;28;20037;-82
2023/06/13 10:07:18;;;;;;;6.13;3.90;;;28.60;52.50;;;-144.05;25.19;57040.00;5061744;28;20124;-80
2023/06/13 10:09:46;;;;;;;8.82;4.05;;;28.10;53.40;;;-144.05;25.59;57003.88;5059615;28;20029;-81